createdAt,value
2019-02-06T00:00:33.207Z,5.97
2019-02-06T00:03:07.928Z,5.47
2019-02-06T00:05:42.990Z,5.17
2019-02-06T00:08:17.210Z,5.50
2019-02-06T00:10:52.353Z,5.72
2019-02-06T00:13:27.160Z,5.33
2019-02-06T00:16:01.584Z,5.50
2019-02-06T00:18:36.584Z,5.50
2019-02-06T00:21:10.848Z,5.77
2019-02-06T00:23:45.417Z,5.15
2019-02-06T00:26:39.531Z,5.05
2019-02-06T00:29:14.323Z,5.27
2019-02-06T00:31:49.124Z,5.30
2019-02-06T00:34:23.879Z,5.40
2019-02-06T00:36:59.500Z,5.20
2019-02-06T00:39:34.092Z,5.25
2019-02-06T00:42:28.083Z,5.00
2019-02-06T00:45:02.787Z,5.13
2019-02-06T00:47:37.431Z,5.17
2019-02-06T00:50:13.514Z,5.28
2019-02-06T00:52:47.831Z,5.57
2019-02-06T00:55:22.524Z,5.63
2019-02-06T00:57:57.405Z,5.13
2019-02-06T01:00:32.269Z,4.83
2019-02-06T01:03:07.494Z,4.77
2019-02-06T01:05:42.057Z,4.95
2019-02-06T01:08:16.836Z,4.70
2019-02-06T01:10:51.236Z,5.17
2019-02-06T01:13:26.267Z,4.85
2019-02-06T01:16:01.234Z,5.00
2019-02-06T01:18:36.029Z,4.93
2019-02-06T01:21:10.941Z,5.10
2019-02-06T01:23:46.015Z,4.67
2019-02-06T01:26:39.321Z,4.15
2019-02-06T01:29:14.103Z,4.13
2019-02-06T01:31:48.693Z,4.78
2019-02-06T01:34:24.225Z,4.67
2019-02-06T01:36:58.855Z,4.53
2019-02-06T01:39:33.922Z,4.53
2019-02-06T01:42:08.740Z,5.08
2019-02-06T01:44:43.916Z,4.30
2019-02-06T01:47:18.127Z,4.95
2019-02-06T01:49:53.739Z,4.67
2019-02-06T01:52:28.767Z,4.78
2019-02-06T01:55:03.478Z,4.25
2019-02-06T01:57:38.641Z,4.33
2019-02-06T02:00:23.568Z,5.08
2019-02-06T02:03:17.574Z,5.03
2019-02-06T02:06:01.916Z,5.65
2019-02-06T02:08:30.328Z,4.72
2019-02-06T02:11:05.275Z,5.45
2019-02-06T02:13:40.153Z,5.00
2019-02-06T02:16:15.438Z,5.12
2019-02-06T02:19:09.618Z,4.93
2019-02-06T02:21:44.006Z,4.63
2019-02-06T02:24:18.731Z,4.93
2019-02-06T02:26:53.505Z,4.58
2019-02-06T02:29:28.027Z,4.95
2019-02-06T02:32:03.337Z,4.67
2019-02-06T02:34:37.861Z,4.47
2019-02-06T02:37:12.741Z,4.90
2019-02-06T02:39:48.394Z,5.13
2019-02-06T02:42:23.199Z,4.85
2019-02-06T02:44:57.918Z,4.95
2019-02-06T02:47:32.735Z,4.92
2019-02-06T02:50:08.194Z,4.85
2019-02-06T02:52:42.944Z,5.35
2019-02-06T02:55:19.243Z,4.78
2019-02-06T02:57:53.680Z,4.72
2019-02-06T03:00:40.693Z,5.53
2019-02-06T03:03:36.596Z,4.72
2019-02-06T03:06:11.295Z,5.00
2019-02-06T03:08:46.072Z,5.22
2019-02-06T03:11:21.036Z,5.03
2019-02-06T03:13:55.692Z,5.20
2019-02-06T03:16:30.716Z,5.60
2019-02-06T03:19:05.723Z,5.50
2019-02-06T03:21:40.837Z,5.60
2019-02-06T03:24:15.521Z,5.43
2019-02-06T03:26:50.322Z,5.92
2019-02-06T03:29:25.617Z,5.83
2019-02-06T03:31:59.889Z,6.22
2019-02-06T03:34:34.683Z,5.83
2019-02-06T03:37:08.958Z,5.83
2019-02-06T03:39:43.569Z,5.65
2019-02-06T03:42:18.350Z,5.53
2019-02-06T03:44:53.189Z,6.03
2019-02-06T03:47:27.729Z,5.95
2019-02-06T03:50:05.668Z,5.65
2019-02-06T03:52:40.587Z,6.13
2019-02-06T03:55:15.033Z,5.95
2019-02-06T03:57:51.446Z,5.72
2019-02-06T04:00:26.307Z,5.70
2019-02-06T04:03:00.603Z,6.20
2019-02-06T04:05:35.402Z,5.85
2019-02-06T04:08:10.368Z,5.83
2019-02-06T04:10:45.014Z,5.95
2019-02-06T04:13:20.069Z,5.62
2019-02-06T04:15:54.618Z,6.37
2019-02-06T04:18:29.507Z,6.20
2019-02-06T04:21:04.769Z,6.20
2019-02-06T04:23:39.663Z,6.50
2019-02-06T04:26:14.267Z,5.67
2019-02-06T04:28:49.057Z,6.00
2019-02-06T04:31:24.075Z,6.62
2019-02-06T04:33:58.585Z,6.03
2019-02-06T04:36:32.993Z,6.37
2019-02-06T04:39:10.038Z,6.03
2019-02-06T04:41:45.179Z,6.17
2019-02-06T04:44:20.516Z,5.95
2019-02-06T04:46:55.334Z,6.22
2019-02-06T04:49:30.086Z,6.10
2019-02-06T04:52:05.466Z,6.80
2019-02-06T04:54:40.515Z,6.12
2019-02-06T04:57:15.004Z,6.60
2019-02-06T04:59:49.894Z,6.33
2019-02-06T05:02:24.482Z,6.22
2019-02-06T05:04:59.395Z,6.30
2019-02-06T05:07:36.316Z,6.33
2019-02-06T05:10:11.921Z,7.08
2019-02-06T05:12:46.339Z,6.45
2019-02-06T05:15:28.573Z,6.70
2019-02-06T05:18:03.006Z,6.37
2019-02-06T05:20:44.482Z,6.62
2019-02-06T05:23:18.717Z,6.28
2019-02-06T05:25:53.576Z,6.40
2019-02-06T05:28:28.093Z,6.20
2019-02-06T05:31:02.890Z,6.25
2019-02-06T05:33:37.534Z,6.30
2019-02-06T05:36:12.515Z,5.58
2019-02-06T05:38:46.830Z,5.95
2019-02-06T05:41:21.929Z,6.00
2019-02-06T05:43:56.790Z,6.15
2019-02-06T05:46:32.792Z,6.40
2019-02-06T05:49:07.851Z,6.40
2019-02-06T05:51:42.695Z,5.87
2019-02-06T05:54:37.730Z,6.25
2019-02-06T05:57:13.770Z,5.45
2019-02-06T05:59:48.665Z,5.95
2019-02-06T06:02:24.084Z,6.22
2019-02-06T06:04:58.518Z,6.30
2019-02-06T06:07:44.745Z,6.15
2019-02-06T06:10:12.450Z,5.55
2019-02-06T06:12:49.665Z,6.10
2019-02-06T06:15:25.140Z,6.05
2019-02-06T06:18:00.196Z,6.20
2019-02-06T06:20:34.778Z,5.97
2019-02-06T06:23:09.535Z,6.58
2019-02-06T06:25:44.231Z,5.75
2019-02-06T06:28:55.447Z,6.42
2019-02-06T06:31:30.302Z,6.33
2019-02-06T06:34:04.842Z,6.78
2019-02-06T06:36:39.846Z,6.42
2019-02-06T06:39:14.420Z,6.35
2019-02-06T06:41:48.794Z,6.55
2019-02-06T06:44:23.225Z,6.28
2019-02-06T06:46:58.494Z,6.87
2019-02-06T06:49:32.709Z,6.17
2019-02-06T06:52:07.519Z,6.87
2019-02-06T06:54:42.375Z,6.35
2019-02-06T06:57:17.495Z,6.20
2019-02-06T06:59:52.075Z,6.60
2019-02-06T07:02:26.914Z,6.45
2019-02-06T07:05:01.939Z,6.42
2019-02-06T07:07:38.612Z,7.00
2019-02-06T07:10:13.485Z,5.85
2019-02-06T07:12:48.560Z,6.30
2019-02-06T07:15:25.334Z,6.58
2019-02-06T07:18:00.053Z,6.35
2019-02-06T07:20:35.151Z,6.60
2019-02-06T07:23:10.097Z,6.28
2019-02-06T07:28:28.438Z,6.53
2019-02-06T07:31:05.940Z,7.20
2019-02-06T07:33:40.081Z,6.20
2019-02-06T07:36:14.854Z,7.05
2019-02-06T07:38:50.550Z,6.95
2019-02-06T07:41:25.088Z,7.28
2019-02-06T07:43:59.554Z,6.87
2019-02-06T07:46:34.185Z,7.37
2019-02-06T07:49:08.757Z,7.65
2019-02-06T07:51:43.513Z,7.22
2019-02-06T07:54:18.494Z,7.28
2019-02-06T07:56:53.289Z,7.00
2019-02-06T07:59:27.751Z,7.42
2019-02-06T08:02:02.395Z,7.08
2019-02-06T08:04:41.260Z,7.03
2019-02-06T08:07:14.701Z,6.42
2019-02-06T08:09:49.404Z,6.75
2019-02-06T08:12:24.273Z,7.22
2019-02-06T08:14:59.306Z,7.30
2019-02-06T08:17:34.016Z,6.85
2019-02-06T08:20:09.013Z,6.90
2019-02-06T08:22:43.992Z,6.80
2019-02-06T08:25:19.534Z,7.22
2019-02-06T08:27:54.220Z,6.97
2019-02-06T08:30:39.947Z,6.62
2019-02-06T08:33:14.572Z,7.30
2019-02-06T08:35:50.565Z,7.17
2019-02-06T08:38:25.332Z,6.95
2019-02-06T08:41:00.146Z,6.75
2019-02-06T08:43:35.058Z,7.25
2019-02-06T08:46:09.999Z,6.53
2019-02-06T08:48:46.756Z,7.45
2019-02-06T08:51:21.719Z,7.22
2019-02-06T08:54:14.325Z,7.00
2019-02-06T08:56:49.364Z,7.08
2019-02-06T08:59:23.790Z,7.47
2019-02-06T09:01:58.128Z,6.83
2019-02-06T09:04:32.713Z,6.90
2019-02-06T09:07:07.628Z,6.92
2019-02-06T09:09:43.583Z,6.70
2019-02-06T09:12:19.215Z,6.80
2019-02-06T09:14:53.991Z,6.75
2019-02-06T09:17:28.739Z,6.90
2019-02-06T09:20:02.855Z,7.10
2019-02-06T09:22:38.577Z,7.10
2019-02-06T09:25:13.794Z,7.20
2019-02-06T09:27:48.639Z,6.85
2019-02-06T09:30:28.691Z,7.33
2019-02-06T09:33:04.163Z,6.90
2019-02-06T09:35:39.010Z,7.45
2019-02-06T09:38:13.454Z,6.95
2019-02-06T09:40:49.509Z,6.53
2019-02-06T09:43:24.141Z,6.80
2019-02-06T09:45:59.198Z,7.00
2019-02-06T09:48:33.260Z,7.10
2019-02-06T09:51:07.863Z,6.80
2019-02-06T09:53:42.822Z,6.90
2019-02-06T09:56:17.104Z,7.05
2019-02-06T09:58:51.553Z,7.03
2019-02-06T10:01:26.281Z,7.12
2019-02-06T10:04:01.382Z,6.40
2019-02-06T10:06:36.564Z,6.53
2019-02-06T10:09:30.446Z,6.55
2019-02-06T10:12:04.874Z,6.80
2019-02-06T10:14:39.912Z,6.90
2019-02-06T10:17:14.484Z,6.33
2019-02-06T10:19:48.960Z,6.45
2019-02-06T10:22:25.047Z,6.62
2019-02-06T10:25:09.302Z,6.65
2019-02-06T10:27:44.464Z,6.08
2019-02-06T10:30:23.636Z,6.78
2019-02-06T10:32:58.326Z,6.95
2019-02-06T10:35:33.973Z,6.70
2019-02-06T10:38:08.896Z,6.42
2019-02-06T10:40:43.310Z,6.70
2019-02-06T10:43:17.990Z,6.45
2019-02-06T10:45:53.551Z,6.17
2019-02-06T10:48:28.495Z,6.33
2019-02-06T10:51:02.615Z,6.22
2019-02-06T10:53:37.756Z,6.53
2019-02-06T10:56:12.410Z,5.87
2019-02-06T10:58:47.016Z,6.03
2019-02-06T11:01:21.472Z,6.37
2019-02-06T11:03:56.061Z,6.20
2019-02-06T11:06:30.823Z,6.17
2019-02-06T11:09:05.973Z,6.33
2019-02-06T11:11:40.207Z,6.17
2019-02-06T11:14:14.915Z,6.10
2019-02-06T11:16:50.043Z,6.05
2019-02-06T11:19:24.486Z,6.10
2019-02-06T11:21:59.123Z,5.95
2019-02-06T11:24:38.302Z,5.78
2019-02-06T11:27:13.132Z,5.42
2019-02-06T11:29:48.530Z,5.40
2019-02-06T11:32:22.909Z,4.95
2019-02-06T11:34:57.686Z,5.43
2019-02-06T11:37:32.271Z,5.33
2019-02-06T11:40:08.015Z,5.40
2019-02-06T11:42:42.468Z,4.95
2019-02-06T11:45:18.479Z,5.20
2019-02-06T11:47:53.365Z,4.80
2019-02-06T11:50:35.219Z,5.07
2019-02-06T11:53:10.771Z,4.87
2019-02-06T11:55:45.563Z,4.93
2019-02-06T11:58:20.639Z,5.00
2019-02-06T12:01:12.365Z,4.83
2019-02-06T12:03:46.927Z,5.30
2019-02-06T12:06:22.556Z,5.13
2019-02-06T12:08:57.279Z,5.50
2019-02-06T12:11:31.724Z,5.27
2019-02-06T12:14:06.762Z,5.77
2019-02-06T12:16:41.728Z,5.30
2019-02-06T12:19:16.784Z,5.43
2019-02-06T12:21:51.455Z,6.07
2019-02-06T12:24:26.409Z,5.33
2019-02-06T12:27:01.368Z,5.30
2019-02-06T12:29:35.759Z,5.33
2019-02-06T12:32:11.668Z,4.97
2019-02-06T12:34:46.331Z,5.47
2019-02-06T12:37:23.757Z,5.90
2019-02-06T12:39:58.425Z,5.47
2019-02-06T12:42:32.982Z,5.80
2019-02-06T12:45:07.795Z,5.80
2019-02-06T12:47:42.264Z,5.60
2019-02-06T12:50:17.105Z,5.83
2019-02-06T12:52:53.620Z,5.17
2019-02-06T12:55:33.633Z,5.77
2019-02-06T12:58:08.263Z,5.87
2019-02-06T13:00:43.567Z,6.00
2019-02-06T13:03:18.403Z,5.83
2019-02-06T13:05:52.936Z,5.90
2019-02-06T13:08:28.098Z,5.60
2019-02-06T13:11:02.776Z,6.20
2019-02-06T13:13:37.604Z,6.07
2019-02-06T13:16:12.288Z,6.23
2019-02-06T13:18:47.357Z,5.93
2019-02-06T13:21:22.085Z,6.50
2019-02-06T13:23:56.481Z,6.00
2019-02-06T13:26:30.903Z,6.17
2019-02-06T13:29:05.625Z,5.93
2019-02-06T13:31:39.923Z,6.43
2019-02-06T13:34:15.604Z,6.17
2019-02-06T13:39:43.892Z,6.20
2019-02-06T13:42:18.511Z,5.80
2019-02-06T13:44:53.548Z,6.57
2019-02-06T13:47:27.858Z,6.33
2019-02-06T13:50:02.810Z,5.93
2019-02-06T13:52:37.364Z,6.17
2019-02-06T13:55:14.582Z,6.13
2019-02-06T13:57:48.959Z,6.30
2019-02-06T14:00:25.741Z,6.90
2019-02-06T14:03:00.541Z,5.90
2019-02-06T14:05:35.766Z,6.80
2019-02-06T14:08:12.820Z,6.50
2019-02-06T14:10:58.418Z,7.03
2019-02-06T14:13:23.453Z,6.10
2019-02-06T14:15:58.142Z,6.27
2019-02-06T14:18:52.003Z,7.08
2019-02-06T14:21:26.191Z,6.42
2019-02-06T14:24:27.566Z,6.83
2019-02-06T14:27:48.981Z,6.37
2019-02-06T14:30:57.748Z,6.45
2019-02-06T14:37:28.758Z,5.90
2019-02-06T14:40:42.748Z,6.25
2019-02-06T14:43:48.234Z,5.87
2019-02-06T14:46:56.699Z,6.53
2019-02-06T14:49:54.140Z,6.10
2019-02-06T14:52:58.547Z,6.42
2019-02-06T14:55:54.207Z,5.55
2019-02-06T14:59:12.857Z,6.40
2019-02-06T15:01:59.841Z,6.00
2019-02-06T15:05:07.240Z,6.87
2019-02-06T15:07:52.204Z,6.20
2019-02-06T15:10:39.680Z,6.15
2019-02-06T15:17:39.325Z,5.77
2019-02-06T15:20:53.673Z,5.95
2019-02-06T15:23:58.101Z,5.60
2019-02-06T15:27:05.101Z,5.90
2019-02-06T15:30:06.501Z,6.17
2019-02-06T15:33:29.417Z,5.47
2019-02-06T15:36:22.269Z,6.03
2019-02-06T15:39:34.785Z,5.50
2019-02-06T15:42:23.419Z,5.63
2019-02-06T15:45:20.899Z,5.87
2019-02-06T15:48:06.652Z,6.42
2019-02-06T15:51:11.031Z,6.30
2019-02-06T15:54:01.301Z,6.03
2019-02-06T15:56:59.535Z,6.50
2019-02-06T16:00:22.397Z,5.95
2019-02-06T16:03:53.304Z,6.15
2019-02-06T16:06:50.402Z,6.62
2019-02-06T16:10:32.753Z,6.45
2019-02-06T16:13:21.499Z,6.20
2019-02-06T16:16:36.330Z,5.78
2019-02-06T16:20:04.783Z,5.95
2019-02-06T16:23:27.021Z,5.97
2019-02-06T16:26:39.459Z,5.80
2019-02-06T16:29:38.380Z,7.03
2019-02-06T16:32:45.589Z,6.47
2019-02-06T16:35:41.631Z,5.65
2019-02-06T16:38:54.718Z,6.42
2019-02-06T16:42:08.734Z,6.22
2019-02-06T16:45:25.437Z,6.58
2019-02-06T16:48:57.919Z,6.70
2019-02-06T16:52:14.730Z,6.55
2019-02-06T16:55:28.059Z,6.45
2019-02-06T16:58:40.553Z,7.00
2019-02-06T17:02:00.705Z,6.62
2019-02-06T17:04:49.908Z,6.83
2019-02-06T17:08:14.662Z,7.03
2019-02-06T17:11:17.695Z,6.33
2019-02-06T17:14:47.596Z,6.42
2019-02-06T17:17:49.527Z,6.05
2019-02-06T17:20:56.288Z,6.12
2019-02-06T17:23:50.044Z,6.35
2019-02-06T17:26:50.028Z,6.03
2019-02-06T17:30:10.903Z,6.70
2019-02-06T17:33:23.507Z,6.80
2019-02-06T17:36:54.040Z,6.03
2019-02-06T17:40:14.606Z,6.50
2019-02-06T17:43:34.224Z,6.00
2019-02-06T17:46:52.600Z,7.03
2019-02-06T17:50:06.950Z,6.78
2019-02-06T17:52:49.670Z,6.30
2019-02-06T17:55:30.592Z,5.97
2019-02-06T17:58:07.141Z,6.47
2019-02-06T18:00:48.534Z,6.60
2019-02-06T18:03:23.102Z,6.53
2019-02-06T18:05:57.663Z,6.60
2019-02-06T18:08:32.583Z,6.58
2019-02-06T18:11:08.093Z,6.53
2019-02-06T18:13:42.842Z,6.78
2019-02-06T18:16:21.477Z,7.25
2019-02-06T18:18:54.267Z,6.62
2019-02-06T18:21:28.774Z,7.50
2019-02-06T18:24:03.684Z,7.07
2019-02-06T18:26:39.074Z,6.47
2019-02-06T18:29:13.587Z,7.35
2019-02-06T18:31:48.788Z,6.57
2019-02-06T18:34:22.815Z,6.12
2019-02-06T18:36:57.820Z,6.37
2019-02-06T18:39:51.639Z,6.80
2019-02-06T18:42:36.575Z,6.42
2019-02-06T18:45:02.184Z,6.58
2019-02-06T18:50:31.224Z,6.30
2019-02-06T18:53:05.729Z,6.03
2019-02-06T18:55:40.991Z,6.97
2019-02-06T18:58:15.854Z,7.03
2019-02-06T19:00:50.774Z,6.30
2019-02-06T19:03:27.461Z,7.33
2019-02-06T19:06:02.845Z,6.78
2019-02-06T19:08:40.026Z,6.53
2019-02-06T19:11:14.484Z,7.40
2019-02-06T19:13:49.057Z,6.60
2019-02-06T19:16:23.949Z,6.12
2019-02-06T19:19:25.163Z,6.67
2019-02-06T19:21:53.457Z,6.70
2019-02-06T19:24:28.180Z,6.63
2019-02-06T19:27:03.341Z,7.12
2019-02-06T19:29:37.824Z,6.57
2019-02-06T19:32:12.870Z,6.17
2019-02-06T19:34:48.391Z,6.62
2019-02-06T19:37:23.211Z,6.30
2019-02-06T19:39:58.001Z,7.58
2019-02-06T19:42:33.005Z,6.40
2019-02-06T19:45:07.894Z,6.30
2019-02-06T19:47:42.945Z,6.30
2019-02-06T19:50:24.498Z,7.03
2019-02-06T19:52:59.275Z,6.40
2019-02-06T19:55:37.530Z,5.83
2019-02-06T19:58:12.310Z,6.47
2019-02-06T20:00:47.190Z,6.10
2019-02-06T20:03:41.009Z,6.30
2019-02-06T20:06:33.976Z,6.65
2019-02-06T20:09:16.068Z,5.60
2019-02-06T20:11:50.946Z,6.15
2019-02-06T20:14:25.737Z,6.10
2019-02-06T20:17:00.981Z,6.65
2019-02-06T20:19:35.929Z,6.35
2019-02-06T20:22:11.043Z,6.33
2019-02-06T20:24:45.805Z,6.23
2019-02-06T20:27:20.767Z,6.23
2019-02-06T20:29:55.882Z,6.73
2019-02-06T20:32:49.809Z,6.35
2019-02-06T20:35:24.494Z,6.03
2019-02-06T20:38:00.294Z,5.90
2019-02-06T20:40:36.261Z,6.33
2019-02-06T20:43:21.470Z,5.85
2019-02-06T20:45:47.625Z,5.93
2019-02-06T20:48:22.638Z,6.07
2019-02-06T20:50:57.137Z,5.78
2019-02-06T20:53:32.371Z,6.60
2019-02-06T20:56:07.063Z,6.20
2019-02-06T20:58:41.446Z,6.57
2019-02-06T21:01:16.139Z,6.30
2019-02-06T21:03:50.996Z,6.33
2019-02-06T21:06:25.761Z,6.70
2019-02-06T21:09:00.484Z,6.05
2019-02-06T21:11:35.794Z,5.85
2019-02-06T21:14:10.550Z,6.17
2019-02-06T21:16:45.634Z,6.22
2019-02-06T21:19:20.513Z,6.55
2019-02-06T21:21:55.636Z,5.90
2019-02-06T21:24:30.414Z,6.28
2019-02-06T21:27:05.459Z,5.90
2019-02-06T21:29:40.036Z,6.07
2019-02-06T21:32:18.304Z,6.77
2019-02-06T21:34:53.342Z,6.03
2019-02-06T21:37:28.295Z,6.17
2019-02-06T21:40:02.838Z,5.85
2019-02-06T21:42:37.864Z,5.97
2019-02-06T21:45:13.596Z,5.72
2019-02-06T21:47:48.112Z,6.40
2019-02-06T21:50:24.760Z,6.40
2019-02-06T21:52:59.511Z,5.90
2019-02-06T21:55:53.258Z,6.15
2019-02-06T21:58:28.425Z,6.10
2019-02-06T22:01:03.381Z,5.90
2019-02-06T22:03:38.293Z,6.23
2019-02-06T22:06:13.572Z,5.87
2019-02-06T22:08:47.811Z,5.93
2019-02-06T22:11:23.445Z,6.17
2019-02-06T22:13:58.487Z,6.43
2019-02-06T22:16:34.156Z,6.55
2019-02-06T22:19:09.154Z,5.65
2019-02-06T22:21:44.101Z,6.15
2019-02-06T22:24:18.782Z,6.10
2019-02-06T22:26:54.791Z,6.08
2019-02-06T22:29:29.333Z,5.70
2019-02-06T22:32:04.594Z,6.00
2019-02-06T22:34:41.355Z,6.10
2019-02-06T22:37:17.392Z,6.20
2019-02-06T22:39:52.057Z,5.97
2019-02-06T22:42:28.846Z,5.87
2019-02-06T22:45:22.768Z,6.13
2019-02-06T22:47:57.386Z,6.50
2019-02-06T22:50:32.639Z,5.97
2019-02-06T22:53:07.340Z,5.93
2019-02-06T22:55:42.262Z,6.33
2019-02-06T22:58:16.768Z,6.40
2019-02-06T23:01:20.804Z,6.53
2019-02-06T23:03:55.275Z,6.03
2019-02-06T23:06:30.342Z,5.83
2019-02-06T23:09:05.528Z,6.33
2019-02-06T23:11:40.409Z,6.00
2019-02-06T23:14:17.751Z,6.57
2019-02-06T23:16:51.001Z,5.80
2019-02-06T23:19:27.175Z,5.90
2019-02-06T23:22:01.697Z,6.10
2019-02-06T23:24:36.606Z,6.03
2019-02-06T23:27:11.784Z,6.15
2019-02-06T23:29:46.437Z,6.10
2019-02-06T23:32:20.889Z,6.23
2019-02-06T23:35:14.978Z,6.20
2019-02-06T23:37:56.210Z,6.50
2019-02-06T23:40:31.176Z,6.37
2019-02-06T23:43:05.887Z,5.80
2019-02-06T23:45:40.676Z,5.97
2019-02-06T23:48:15.396Z,6.10
2019-02-06T23:50:50.438Z,5.58
2019-02-06T23:53:25.094Z,5.77
2019-02-06T23:56:00.007Z,5.90
2019-02-06T23:58:34.573Z,5.72
